createdAt,value
2022-08-28T00:01:24.622Z,28.23
2022-08-28T00:03:51.124Z,28.83
2022-08-28T00:06:17.751Z,30.25
2022-08-28T00:08:44.504Z,28.83
2022-08-28T00:11:11.045Z,28.70
2022-08-28T00:13:43.957Z,30.52
2022-08-28T00:16:11.721Z,29.17
2022-08-28T00:18:40.197Z,28.67
2022-08-28T00:21:08.068Z,26.98
2022-08-28T00:23:42.502Z,25.75
2022-08-28T00:26:09.863Z,25.95
2022-08-28T00:28:38.058Z,24.60
2022-08-28T00:31:04.750Z,22.48
2022-08-28T00:33:33.766Z,24.65
2022-08-28T00:36:01.819Z,25.08
2022-08-28T00:38:30.774Z,23.17
2022-08-28T00:41:01.751Z,22.77
2022-08-28T00:43:37.862Z,23.88
2022-08-28T00:46:11.990Z,24.30
2022-08-28T00:48:39.515Z,22.70
2022-08-28T00:51:07.186Z,21.27
2022-08-28T00:53:33.819Z,21.60
2022-08-28T00:56:09.466Z,20.55
2022-08-28T00:58:42.325Z,21.90
2022-08-28T01:01:09.351Z,18.15
2022-08-28T01:03:36.561Z,21.08
2022-08-28T01:06:03.766Z,22.98
2022-08-28T01:08:30.812Z,22.98
2022-08-28T01:11:01.051Z,26.08
2022-08-28T01:15:56.040Z,26.48
2022-08-28T01:18:23.396Z,26.38
2022-08-28T01:21:27.563Z,26.08
2022-08-28T01:24:04.858Z,22.45
2022-08-28T01:26:31.682Z,25.80
2022-08-28T01:28:59.446Z,26.48
2022-08-28T01:31:27.990Z,28.00
2022-08-28T01:33:56.115Z,27.02
2022-08-28T01:36:22.569Z,27.92
2022-08-28T01:38:56.136Z,25.00
2022-08-28T01:41:22.730Z,23.83
2022-08-28T01:43:49.245Z,26.23
2022-08-28T01:46:15.668Z,30.45
2022-08-28T01:48:44.476Z,27.20
2022-08-28T01:51:12.345Z,30.98
2022-08-28T01:53:39.877Z,30.52
2022-08-28T01:56:11.282Z,33.47
2022-08-28T01:58:38.623Z,30.58
2022-08-28T02:01:13.499Z,30.58
2022-08-28T02:03:42.970Z,28.27
2022-08-28T02:06:10.291Z,27.23
2022-08-28T02:08:37.152Z,28.55
2022-08-28T02:11:07.619Z,26.90
2022-08-28T02:13:36.536Z,28.05
2022-08-28T02:16:07.052Z,28.27
2022-08-28T02:18:33.574Z,31.00
2022-08-28T02:21:00.180Z,26.85
2022-08-28T02:23:27.216Z,28.92
2022-08-28T02:25:53.923Z,28.73
2022-08-28T02:28:20.391Z,26.80
2022-08-28T02:30:46.930Z,28.98
2022-08-28T02:33:13.331Z,27.35
2022-08-28T02:35:39.968Z,28.52
2022-08-28T02:38:06.472Z,32.17
2022-08-28T02:40:32.919Z,26.55
2022-08-28T02:42:59.735Z,30.17
2022-08-28T02:45:31.365Z,29.13
2022-08-28T02:47:57.851Z,29.23
2022-08-28T02:50:24.538Z,27.63
2022-08-28T02:52:51.935Z,29.33
2022-08-28T02:55:19.605Z,29.30
2022-08-28T02:57:48.734Z,27.55
2022-08-28T03:00:21.094Z,26.73
2022-08-28T03:02:48.750Z,27.05
2022-08-28T03:05:17.676Z,26.33
2022-08-28T03:07:45.080Z,27.88
2022-08-28T03:10:11.778Z,28.25
2022-08-28T03:12:38.837Z,25.67
2022-08-28T03:15:06.455Z,27.35
2022-08-28T03:17:33.206Z,27.98
2022-08-28T03:19:59.635Z,23.42
2022-08-28T03:22:26.272Z,25.92
2022-08-28T03:24:52.762Z,28.65
2022-08-28T03:27:19.270Z,27.13
2022-08-28T03:29:45.609Z,28.83
2022-08-28T03:32:12.131Z,26.42
2022-08-28T03:34:38.598Z,28.70
2022-08-28T03:37:04.965Z,26.80
2022-08-28T03:39:31.674Z,30.27
2022-08-28T03:41:58.354Z,29.95
2022-08-28T03:44:24.831Z,31.05
2022-08-28T03:46:51.346Z,29.92
2022-08-28T03:49:18.126Z,33.55
2022-08-28T03:51:46.094Z,34.13
2022-08-28T03:54:13.032Z,32.05
2022-08-28T03:56:43.369Z,32.03
2022-08-28T03:59:10.465Z,35.50
2022-08-28T04:01:36.964Z,34.17
2022-08-28T04:04:04.002Z,32.75
2022-08-28T04:06:30.697Z,29.23
2022-08-28T04:09:00.092Z,32.22
2022-08-28T04:11:27.334Z,33.07
2022-08-28T04:13:53.801Z,32.22
2022-08-28T04:16:21.690Z,30.38
2022-08-28T04:18:49.542Z,30.05
2022-08-28T04:21:19.432Z,29.55
2022-08-28T04:23:47.370Z,28.52
2022-08-28T04:26:17.121Z,26.10
2022-08-28T04:28:43.688Z,30.15
2022-08-28T04:31:10.590Z,24.77
2022-08-28T04:33:38.158Z,26.60
2022-08-28T04:36:10.387Z,26.65
2022-08-28T04:38:43.548Z,27.17
2022-08-28T04:41:13.497Z,25.95
2022-08-28T04:43:40.311Z,24.27
2022-08-28T04:46:10.973Z,23.08
2022-08-28T04:48:39.912Z,25.90
2022-08-28T04:51:09.200Z,25.70
2022-08-28T04:53:38.057Z,23.75
2022-08-28T04:56:07.385Z,24.83
2022-08-28T04:58:34.260Z,22.60
2022-08-28T05:01:06.954Z,21.83
2022-08-28T05:03:33.617Z,19.75
2022-08-28T05:06:00.269Z,21.50
2022-08-28T05:08:26.824Z,20.08
2022-08-28T05:10:54.872Z,21.48
2022-08-28T05:13:22.309Z,18.45
2022-08-28T05:15:50.951Z,19.83
2022-08-28T05:18:19.752Z,19.73
2022-08-28T05:20:47.975Z,19.60
2022-08-28T05:23:16.733Z,22.83
2022-08-28T05:25:47.925Z,22.80
2022-08-28T05:28:16.460Z,20.80
2022-08-28T05:30:44.050Z,22.17
2022-08-28T05:33:13.489Z,18.75
2022-08-28T05:35:44.642Z,22.25
2022-08-28T05:38:13.377Z,23.02
2022-08-28T05:40:44.432Z,19.92
2022-08-28T05:43:12.667Z,22.45
2022-08-28T05:45:41.389Z,19.38
2022-08-28T05:48:11.449Z,20.50
2022-08-28T05:50:39.086Z,17.85
2022-08-28T05:53:09.451Z,21.05
2022-08-28T05:55:40.104Z,19.52
2022-08-28T05:58:06.640Z,21.25
2022-08-28T06:00:33.006Z,20.40
2022-08-28T06:02:59.508Z,18.70
2022-08-28T06:05:25.871Z,18.50
2022-08-28T06:07:54.679Z,18.67
2022-08-28T06:10:21.054Z,18.25
2022-08-28T06:12:47.701Z,20.33
2022-08-28T06:15:14.154Z,16.98
2022-08-28T06:17:40.947Z,20.40
2022-08-28T06:20:08.037Z,16.38
2022-08-28T06:22:34.542Z,17.13
2022-08-28T06:25:01.018Z,15.82
2022-08-28T06:27:30.413Z,16.75
2022-08-28T06:29:56.917Z,18.35
2022-08-28T06:32:23.379Z,15.98
2022-08-28T06:34:49.897Z,15.95
2022-08-28T06:37:16.824Z,13.52
2022-08-28T06:39:43.407Z,16.23
2022-08-28T06:42:09.784Z,17.95
2022-08-28T06:44:36.854Z,18.15
2022-08-28T06:47:03.435Z,18.33
2022-08-28T06:49:29.942Z,16.92
2022-08-28T06:51:56.536Z,16.95
2022-08-28T06:54:23.745Z,17.40
2022-08-28T06:56:51.264Z,15.98
2022-08-28T06:59:17.955Z,16.30
2022-08-28T07:01:44.427Z,15.27
2022-08-28T07:04:13.217Z,15.00
2022-08-28T07:06:42.129Z,15.13
2022-08-28T07:09:10.269Z,15.07
2022-08-28T07:11:37.296Z,15.25
2022-08-28T07:14:04.151Z,15.10
2022-08-28T07:16:39.021Z,14.45
2022-08-28T07:19:10.726Z,14.38
2022-08-28T07:21:39.859Z,14.82
2022-08-28T07:24:08.471Z,15.30
2022-08-28T07:26:35.851Z,14.35
2022-08-28T07:29:09.357Z,14.85
2022-08-28T07:31:36.515Z,13.20
2022-08-28T07:34:04.075Z,12.30
2022-08-28T07:36:30.518Z,13.25
2022-08-28T07:38:59.674Z,12.27
2022-08-28T07:41:28.719Z,13.63
2022-08-28T07:43:56.304Z,12.32
2022-08-28T07:46:22.757Z,12.20
2022-08-28T07:48:49.252Z,13.50
2022-08-28T07:51:15.879Z,12.60
2022-08-28T07:53:42.362Z,11.07
2022-08-28T07:56:09.438Z,12.27
2022-08-28T07:58:37.432Z,12.45
2022-08-28T08:01:04.116Z,10.40
2022-08-28T08:03:31.788Z,11.05
2022-08-28T08:06:04.072Z,9.45
2022-08-28T08:08:32.191Z,9.80
2022-08-28T08:11:01.702Z,10.68
2022-08-28T08:13:30.233Z,10.70
2022-08-28T08:16:28.260Z,11.73
2022-08-28T08:18:54.895Z,10.95
2022-08-28T08:21:21.891Z,13.13
2022-08-28T08:23:48.673Z,11.30
2022-08-28T08:26:25.891Z,11.07
2022-08-28T08:28:52.506Z,12.07
2022-08-28T08:31:25.115Z,11.95
2022-08-28T08:33:55.795Z,11.68
2022-08-28T08:36:24.163Z,12.75
2022-08-28T08:38:59.142Z,12.77
2022-08-28T08:41:34.766Z,12.00
2022-08-28T08:44:09.696Z,11.27
2022-08-28T08:47:05.538Z,10.75
2022-08-28T08:49:48.370Z,11.00
2022-08-28T08:52:29.971Z,10.45
2022-08-28T08:55:28.668Z,11.32
2022-08-28T08:58:23.994Z,11.50
2022-08-28T09:01:09.000Z,11.73
2022-08-28T09:03:50.268Z,9.57
2022-08-28T09:06:45.121Z,10.32
2022-08-28T09:09:34.729Z,8.48
2022-08-28T09:12:05.570Z,9.65
2022-08-28T09:14:59.215Z,9.75
2022-08-28T09:17:31.319Z,9.40
2022-08-28T09:19:58.093Z,8.57
2022-08-28T09:22:24.486Z,8.93
2022-08-28T09:24:52.524Z,9.32
2022-08-28T09:27:30.769Z,9.23
2022-08-28T09:30:07.312Z,9.68
2022-08-28T09:32:38.743Z,10.23
2022-08-28T09:35:07.815Z,9.63
2022-08-28T09:37:36.488Z,9.95
2022-08-28T09:40:30.535Z,9.93
2022-08-28T09:43:02.361Z,9.93
2022-08-28T09:45:30.616Z,8.80
2022-08-28T09:47:58.456Z,10.15
2022-08-28T09:50:31.396Z,9.20
2022-08-28T09:53:13.618Z,8.85
2022-08-28T09:56:12.625Z,8.43
2022-08-28T09:58:55.483Z,9.15
2022-08-28T10:01:44.825Z,8.90
2022-08-28T10:04:14.749Z,8.20
2022-08-28T10:06:44.853Z,8.60
2022-08-28T10:09:26.805Z,9.10
2022-08-28T10:11:59.152Z,8.93
2022-08-28T10:14:39.504Z,8.63
2022-08-28T10:20:06.466Z,8.75
2022-08-28T10:22:53.426Z,8.07
2022-08-28T10:25:44.358Z,8.63
2022-08-28T10:28:42.831Z,8.13
2022-08-28T10:31:31.545Z,8.95
2022-08-28T10:34:07.749Z,8.13
2022-08-28T10:36:36.650Z,8.55
2022-08-28T10:39:21.194Z,9.15
2022-08-28T10:41:58.211Z,8.80
2022-08-28T10:44:36.974Z,8.30
2022-08-28T10:47:05.603Z,7.53
2022-08-28T10:49:37.161Z,8.25
2022-08-28T10:52:09.223Z,8.40
2022-08-28T10:54:54.723Z,8.57
2022-08-28T10:57:37.284Z,8.45
2022-08-28T11:00:16.672Z,9.23
2022-08-28T11:02:51.403Z,8.45
2022-08-28T11:05:24.230Z,9.05
2022-08-28T11:07:58.534Z,7.75
2022-08-28T11:10:50.038Z,7.22
2022-08-28T11:13:55.709Z,6.55
2022-08-28T11:16:24.512Z,8.00
2022-08-28T11:19:14.458Z,6.60
2022-08-28T11:22:03.558Z,6.65
2022-08-28T11:24:39.031Z,7.97
2022-08-28T11:27:31.547Z,6.47
2022-08-28T11:30:03.372Z,8.18
2022-08-28T11:32:51.469Z,7.35
2022-08-28T11:35:20.868Z,6.88
2022-08-28T11:37:52.436Z,7.07
2022-08-28T11:40:28.020Z,7.03
2022-08-28T11:43:13.021Z,6.70
2022-08-28T11:45:46.635Z,6.82
2022-08-28T11:48:22.896Z,7.70
2022-08-28T11:50:54.480Z,7.70
2022-08-28T11:53:29.671Z,7.30
2022-08-28T11:56:31.046Z,6.25
2022-08-28T11:59:37.201Z,5.55
2022-08-28T12:02:41.178Z,6.32
2022-08-28T12:05:16.207Z,6.47
2022-08-28T12:07:48.472Z,6.10
2022-08-28T12:10:24.080Z,5.85
2022-08-28T12:12:57.678Z,5.88
2022-08-28T12:15:30.119Z,6.30
2022-08-28T12:18:03.938Z,6.38
2022-08-28T12:20:39.459Z,6.38
2022-08-28T12:23:37.091Z,6.20
2022-08-28T12:26:27.065Z,6.68
2022-08-28T12:29:01.136Z,5.75
2022-08-28T12:31:56.774Z,5.60
2022-08-28T12:34:34.553Z,5.85
2022-08-28T12:37:02.850Z,5.78
2022-08-28T12:39:32.058Z,5.50
2022-08-28T12:41:59.383Z,5.50
2022-08-28T12:44:29.556Z,5.53
2022-08-28T12:49:37.418Z,5.93
2022-08-28T12:52:25.963Z,5.32
2022-08-28T12:54:54.873Z,5.30
2022-08-28T12:57:24.178Z,5.30
2022-08-28T12:59:53.570Z,5.40
2022-08-28T13:02:33.952Z,5.90
2022-08-28T13:05:07.408Z,5.68
2022-08-28T13:07:46.869Z,5.18
2022-08-28T13:10:42.536Z,4.85
2022-08-28T13:13:18.954Z,5.60
2022-08-28T13:15:51.683Z,5.03
2022-08-28T13:18:39.907Z,4.80
2022-08-28T13:21:32.522Z,5.05
2022-08-28T13:24:21.288Z,5.25
2022-08-28T13:26:50.337Z,5.25
2022-08-28T13:29:19.893Z,5.78
2022-08-28T13:31:56.642Z,6.10
2022-08-28T13:34:25.970Z,6.63
2022-08-28T13:36:56.425Z,6.37
2022-08-28T13:39:22.812Z,6.15
2022-08-28T13:41:54.335Z,6.13
2022-08-28T13:44:33.023Z,6.53
2022-08-28T13:47:01.983Z,6.88
2022-08-28T13:49:28.656Z,5.97
2022-08-28T13:51:57.979Z,6.25
2022-08-28T13:54:27.155Z,6.20
2022-08-28T13:59:21.489Z,4.80
2022-08-28T14:01:50.611Z,5.47
2022-08-28T14:04:17.222Z,5.10
2022-08-28T14:06:44.550Z,5.63
2022-08-28T14:09:11.953Z,5.95
2022-08-28T14:11:38.725Z,6.15
2022-08-28T14:14:05.474Z,6.35
2022-08-28T14:16:35.452Z,6.25
2022-08-28T14:19:06.212Z,5.90
2022-08-28T14:21:34.370Z,5.38
2022-08-28T14:24:01.132Z,6.03
2022-08-28T14:26:28.546Z,5.50
2022-08-28T14:28:55.284Z,4.97
2022-08-28T14:31:22.032Z,5.80
2022-08-28T14:33:53.189Z,6.03
2022-08-28T14:36:26.723Z,6.00
2022-08-28T14:38:55.975Z,5.90
2022-08-28T14:41:23.927Z,5.85
2022-08-28T14:43:51.472Z,5.78
2022-08-28T14:46:37.628Z,5.53
2022-08-28T14:49:08.470Z,4.80
2022-08-28T14:51:37.644Z,4.65
2022-08-28T14:54:06.798Z,5.30
2022-08-28T14:56:34.332Z,4.75
2022-08-28T14:59:04.666Z,5.30
2022-08-28T15:01:39.542Z,5.55
2022-08-28T15:04:10.931Z,5.05
2022-08-28T15:09:04.165Z,5.05
2022-08-28T15:11:31.003Z,4.65
2022-08-28T15:13:57.864Z,4.78
2022-08-28T15:16:37.241Z,4.55
2022-08-28T15:19:05.083Z,5.30
2022-08-28T15:21:33.069Z,5.53
2022-08-28T15:24:01.842Z,5.05
2022-08-28T15:26:34.579Z,4.65
2022-08-28T15:29:01.136Z,4.45
2022-08-28T15:31:32.634Z,4.95
2022-08-28T15:34:03.936Z,4.28
2022-08-28T15:36:33.840Z,4.57
2022-08-28T15:39:03.733Z,5.32
2022-08-28T15:41:30.763Z,4.75
2022-08-28T15:44:00.311Z,4.75
2022-08-28T15:46:28.262Z,4.35
2022-08-28T15:48:55.610Z,5.07
2022-08-28T15:51:26.096Z,4.65
2022-08-28T15:53:54.726Z,4.45
2022-08-28T15:56:21.200Z,4.72
2022-08-28T15:58:48.103Z,4.43
2022-08-28T16:01:14.520Z,5.07
2022-08-28T16:03:41.820Z,4.65
2022-08-28T16:06:15.130Z,4.93
2022-08-28T16:08:42.685Z,4.40
2022-08-28T16:11:09.432Z,4.95
2022-08-28T16:13:35.965Z,5.22
2022-08-28T16:16:02.542Z,5.13
2022-08-28T16:18:29.352Z,4.63
2022-08-28T16:20:55.777Z,4.90
2022-08-28T16:23:22.694Z,5.18
2022-08-28T16:25:49.231Z,4.88
2022-08-28T16:28:15.832Z,4.70
2022-08-28T16:30:43.901Z,4.57
2022-08-28T16:33:11.217Z,5.07
2022-08-28T16:35:49.447Z,5.13
2022-08-28T16:38:21.381Z,4.55
2022-08-28T16:40:48.338Z,5.03
2022-08-28T16:43:15.412Z,4.63
2022-08-28T16:45:46.165Z,4.20
2022-08-28T16:48:14.617Z,4.50
2022-08-28T16:50:42.654Z,4.53
2022-08-28T16:53:09.778Z,4.93
2022-08-28T16:55:38.271Z,5.18
2022-08-28T16:58:05.392Z,5.32
2022-08-28T17:00:31.816Z,6.00
2022-08-28T17:02:59.495Z,4.82
2022-08-28T17:05:27.026Z,4.88
2022-08-28T17:07:53.577Z,4.82
2022-08-28T17:10:22.402Z,5.18
2022-08-28T17:12:49.354Z,4.82
2022-08-28T17:15:16.353Z,4.70
2022-08-28T17:17:43.149Z,5.10
2022-08-28T17:20:11.546Z,4.93
2022-08-28T17:22:38.123Z,4.63
2022-08-28T17:25:13.822Z,4.90
2022-08-28T17:27:41.497Z,4.85
2022-08-28T17:30:11.895Z,4.95
2022-08-28T17:32:38.427Z,5.70
2022-08-28T17:35:05.844Z,5.47
2022-08-28T17:37:32.801Z,5.13
2022-08-28T17:39:59.424Z,5.07
2022-08-28T17:42:25.790Z,4.53
2022-08-28T17:44:52.472Z,4.97
2022-08-28T17:47:19.049Z,4.68
2022-08-28T17:49:53.877Z,5.10
2022-08-28T17:52:20.276Z,5.20
2022-08-28T17:54:46.775Z,4.68
2022-08-28T17:57:20.369Z,4.57
2022-08-28T17:59:46.814Z,5.80
2022-08-28T18:02:13.393Z,5.22
2022-08-28T18:04:39.880Z,5.85
2022-08-28T18:07:06.308Z,5.85
2022-08-28T18:09:32.803Z,6.20
2022-08-28T18:11:59.534Z,5.13
2022-08-28T18:14:27.407Z,5.25
2022-08-28T18:16:54.056Z,6.47
2022-08-28T18:19:20.792Z,5.40
2022-08-28T18:21:47.659Z,4.95
2022-08-28T18:24:14.096Z,5.15
2022-08-28T18:26:42.155Z,5.28
2022-08-28T18:29:08.808Z,6.20
2022-08-28T18:31:35.506Z,5.60
2022-08-28T18:34:02.313Z,5.85
2022-08-28T18:36:29.043Z,6.03
2022-08-28T18:38:55.622Z,5.40
2022-08-28T18:41:26.938Z,5.40
2022-08-28T18:44:10.061Z,5.93
2022-08-28T18:46:36.555Z,5.88
2022-08-28T18:49:04.083Z,6.20
2022-08-28T18:51:30.586Z,5.50
2022-08-28T18:53:59.417Z,5.35
2022-08-28T18:56:28.031Z,5.75
2022-08-28T18:58:57.990Z,7.72
2022-08-28T19:01:24.865Z,8.35
2022-08-28T19:03:51.835Z,7.45
2022-08-28T19:06:22.267Z,7.97
2022-08-28T19:11:17.233Z,8.52
2022-08-28T19:13:44.029Z,8.70
2022-08-28T19:16:15.451Z,8.60
2022-08-28T19:18:42.215Z,8.02
2022-08-28T19:21:16.270Z,8.75
2022-08-28T19:23:55.608Z,8.43
2022-08-28T19:26:27.781Z,9.55
2022-08-28T19:28:55.248Z,8.90
2022-08-28T19:31:26.199Z,7.95
2022-08-28T19:33:53.470Z,9.07
2022-08-28T19:36:20.195Z,9.13
2022-08-28T19:38:47.066Z,9.23
2022-08-28T19:41:14.309Z,8.93
2022-08-28T19:43:42.912Z,10.00
2022-08-28T19:46:18.446Z,10.48
2022-08-28T19:48:51.083Z,8.90
2022-08-28T19:51:23.448Z,9.18
2022-08-28T19:53:57.286Z,8.35
2022-08-28T19:56:27.414Z,8.00
2022-08-28T19:58:55.487Z,8.38
2022-08-28T20:01:24.391Z,8.75
2022-08-28T20:03:51.080Z,7.40
2022-08-28T20:06:18.599Z,8.57
2022-08-28T20:08:45.087Z,8.65
2022-08-28T20:11:17.543Z,7.63
2022-08-28T20:13:44.108Z,8.75
2022-08-28T20:16:11.146Z,8.48
2022-08-28T20:18:37.569Z,8.43
2022-08-28T20:21:04.172Z,7.90
2022-08-28T20:23:30.719Z,8.23
2022-08-28T20:25:57.072Z,8.68
2022-08-28T20:28:23.569Z,8.77
2022-08-28T20:30:50.203Z,9.25
2022-08-28T20:33:16.606Z,8.25
2022-08-28T20:35:43.359Z,8.68
2022-08-28T20:38:09.747Z,8.60
2022-08-28T20:40:36.342Z,9.25
2022-08-28T20:43:03.104Z,8.55
2022-08-28T20:45:29.815Z,9.90
2022-08-28T20:47:56.542Z,8.80
2022-08-28T20:50:25.074Z,8.05
2022-08-28T20:52:51.662Z,8.20
2022-08-28T20:55:18.159Z,8.40
2022-08-28T20:57:45.849Z,9.73
2022-08-28T21:00:12.889Z,8.25
2022-08-28T21:02:39.897Z,9.15
2022-08-28T21:05:06.892Z,9.05
2022-08-28T21:07:36.336Z,9.55
2022-08-28T21:10:08.008Z,10.00
2022-08-28T21:12:39.203Z,10.02
2022-08-28T21:15:08.954Z,8.10
2022-08-28T21:17:36.107Z,8.48
2022-08-28T21:20:07.045Z,8.45
2022-08-28T21:22:35.297Z,9.90
2022-08-28T21:25:07.557Z,9.75
2022-08-28T21:27:34.669Z,8.95
2022-08-28T21:30:01.422Z,9.75
2022-08-28T21:32:29.372Z,9.27
2022-08-28T21:34:56.602Z,9.05
2022-08-28T21:37:23.778Z,9.40
2022-08-28T21:39:50.261Z,9.13
2022-08-28T21:42:17.001Z,10.00
2022-08-28T21:44:44.615Z,8.88
2022-08-28T21:47:19.752Z,9.07
2022-08-28T21:49:48.608Z,8.93
2022-08-28T21:52:15.063Z,9.18
2022-08-28T21:54:41.606Z,9.48
2022-08-28T21:57:08.256Z,9.07
2022-08-28T21:59:37.848Z,9.40
2022-08-28T22:02:04.749Z,10.23
2022-08-28T22:04:33.238Z,9.38
2022-08-28T22:07:01.036Z,9.32
2022-08-28T22:09:28.427Z,9.52
2022-08-28T22:11:54.881Z,9.95
2022-08-28T22:14:21.224Z,10.88
2022-08-28T22:16:47.893Z,9.68
2022-08-28T22:19:14.341Z,9.45
2022-08-28T22:21:41.102Z,9.98
2022-08-28T22:24:09.130Z,9.07
2022-08-28T22:26:35.980Z,9.38
2022-08-28T22:29:02.394Z,10.25
2022-08-28T22:31:28.928Z,10.15
2022-08-28T22:33:55.407Z,9.60
2022-08-28T22:36:22.287Z,9.52
2022-08-28T22:38:53.437Z,9.00
2022-08-28T22:41:20.714Z,9.68
2022-08-28T22:43:51.177Z,9.73
2022-08-28T22:46:19.476Z,10.07
2022-08-28T22:48:46.150Z,9.73
2022-08-28T22:51:15.098Z,9.75
2022-08-28T22:53:42.898Z,9.32
2022-08-28T22:56:11.218Z,9.43
2022-08-28T22:58:39.068Z,9.25
2022-08-28T23:01:09.675Z,9.38
2022-08-28T23:06:03.929Z,8.45
2022-08-28T23:08:33.911Z,9.48
2022-08-28T23:11:01.041Z,9.45
2022-08-28T23:13:28.370Z,10.15
2022-08-28T23:15:54.742Z,10.35
2022-08-28T23:18:21.453Z,10.18
2022-08-28T23:20:50.535Z,10.57
2022-08-28T23:23:17.368Z,10.80
2022-08-28T23:25:46.146Z,9.52
2022-08-28T23:28:13.355Z,9.85
2022-08-28T23:30:40.295Z,10.15
2022-08-28T23:33:10.581Z,9.50
2022-08-28T23:35:38.594Z,9.15
2022-08-28T23:38:05.027Z,9.63
2022-08-28T23:40:32.813Z,9.52
2022-08-28T23:43:01.618Z,9.77
2022-08-28T23:45:28.609Z,9.57
2022-08-28T23:47:55.127Z,10.27
2022-08-28T23:50:23.130Z,10.23
2022-08-28T23:52:50.280Z,9.75
2022-08-28T23:55:18.945Z,9.52
2022-08-28T23:57:45.797Z,9.43
